Airport View

Enter AWOS ICAO identifier for current METAR.

ex. KFNL

KBOK 212256Z AUTO 32007KT 10SM CLR 24/15 A2999 RMK AO2 SLP152 T02440150

21 Sep 2019 23:24

Frequency: 132.025

Phone: 541-412-8682

Other Area AWOS: KCEC - K4S1 - K3S8 - KSXT

TAF KCEC 211745Z 2118/2218 33011KT P6SM SKC FM220400 33005KT P6SM SCT010 FM220900 16004KT 4SM BR OVC005 FM221200 VRB03KT 1SM BR OVC003 FM221700 17005KT 6SM BR OVC010